Strona główna
METAR-TAF:

METAR-TAF

Lotnisko :

Platforma wiertnicza

L9-ff-1, Holandia

Szerokość geograficzna: 53-36-52N, Długość geograficzna: 4-57-37E, wysokość: 30 m

Aktualna obserwacja pogody

Raport powstał 14 minut temu, godzina 19:25 UTC
Wiatr 13 kt od południowo-południowy zachód
Temperatura 16°C
Wilgotność 100%
Ciśnienie 1010 hPa
Widzialność: 9000 m
Mało chmury na wysokości 200 ft
Przerywane chmury na wysokości 600 ft
Zachmurzenie całkowite na wysokości 700 ft

METAR: EHMG 181925Z AUTO 21013KT 9000 FEW002 BKN006 OVC007 16/16 Q1010 W///H///

czas: 21:39 (19:39 UTC)


TAF: brakujący

Obserwacja i prognoza pogody dla ponad 4000 lotnisk (raport METAR i TAF).

Dostępne stacje oznaczono żółtymi i czerwonymi punktami na mapie.

Najedź kursorem aby zobaczyć nazwę stacji.

Kliknij aby zobaczyć obserwacje i prognozy pogody.

Aby zmienić mapę: kliknij na zielony przycisk z czarnym krzyżykiem, aby powiększyć; na zielony przycisk z myślnikiem, aby pomniejszyć; na zielone strzałki, aby przejść do map sąsiednich.


METAR-TAF: